Time;durP1;ratioP1;P1;durP2;ratioP2;P2;SDS_P1;SDS_P2;PMS_P1;PMS_P2;Temp;Humidity;BMP_temperature;BMP_pressure;BME280_temperature;BME280_humidity;BME280_pressure;Samples;Min_cycle;Max_cycle;Signal;HPM_P1;HPM_P2
2021/08/19 00:00:49;;;;;;;758.93;559.57;;;;;;;14.25;78.79;98899.38;5010430;28;20485;-69
2021/08/19 00:03:17;;;;;;;745.50;531.63;;;;;;;14.37;78.27;98926.84;5010905;28;20439;-69
2021/08/19 00:05:45;;;;;;;741.40;517.07;;;;;;;14.33;78.47;98934.44;5010988;28;20863;-69
2021/08/19 00:08:13;;;;;;;736.50;506.70;;;;;;;14.32;77.73;98932.78;5007536;28;20505;-69
2021/08/19 00:10:42;;;;;;;743.83;524.77;;;;;;;14.27;78.13;98940.56;5010733;28;20442;-69
2021/08/19 00:13:10;;;;;;;733.10;504.50;;;;;;;14.29;77.17;98933.97;5011080;28;20438;-69
2021/08/19 00:15:38;;;;;;;753.50;543.47;;;;;;;14.29;76.86;98935.81;5026227;28;20500;-69
2021/08/19 00:18:07;;;;;;;755.50;547.47;;;;;;;14.33;75.91;98939.00;5008938;28;20474;-69
2021/08/19 00:20:35;;;;;;;765.30;570.23;;;;;;;14.30;76.71;98940.19;5010463;28;20960;-69
2021/08/19 00:23:04;;;;;;;755.30;547.67;;;;;;;14.29;76.53;98946.63;5009735;28;20480;-69
2021/08/19 00:25:32;;;;;;;745.23;530.97;;;;;;;14.27;75.91;98946.78;4998728;28;20446;-69
2021/08/19 00:28:00;;;;;;;761.67;564.53;;;;;;;14.27;75.80;98951.34;5009370;28;20464;-70
2021/08/19 00:30:28;;;;;;;761.43;565.70;;;;;;;14.21;76.49;98952.88;5010546;28;20436;-69
2021/08/19 00:32:56;;;;;;;758.57;554.53;;;;;;;14.19;76.57;98956.78;4983481;28;20439;-69
2021/08/19 00:35:28;;;;;;;728.60;490.00;;;;;;;14.15;76.24;98958.97;5010404;28;20952;-70
2021/08/19 00:37:56;;;;;;;757.80;558.20;;;;;;;13.84;75.86;98920.22;5010184;28;20446;-70
2021/08/19 00:40:25;;;;;;;760.83;561.20;;;;;;;13.98;76.33;98939.25;5010423;28;20487;-69
2021/08/19 00:42:54;;;;;;;761.67;567.53;;;;;;;14.09;76.04;98959.66;5003246;28;20504;-70
2021/08/19 00:45:22;;;;;;;749.57;539.37;;;;;;;14.06;76.23;98961.84;5010368;28;20450;-70
2021/08/19 00:47:51;;;;;;;767.80;573.10;;;;;;;14.01;75.96;98956.94;5010255;28;20438;-70
2021/08/19 00:50:19;;;;;;;770.17;580.33;;;;;;;14.03;75.29;98956.78;5010274;28;20441;-70
2021/08/19 00:52:48;;;;;;;744.57;531.20;;;;;;;13.94;75.83;98948.69;5025633;28;20533;-69
2021/08/19 00:55:18;;;;;;;771.00;578.77;;;;;;;13.79;75.74;98931.50;5010537;28;20878;-70
2021/08/19 00:57:46;;;;;;;759.27;553.93;;;;;;;13.97;75.54;98963.69;5010090;28;20452;-69
2021/08/19 01:00:15;;;;;;;748.80;542.10;;;;;;;13.75;75.17;98929.31;5001829;28;20462;-69
2021/08/19 01:02:45;;;;;;;764.87;564.90;;;;;;;13.94;74.98;98966.75;5005880;28;20478;-69
2021/08/19 01:05:15;;;;;;;767.60;577.13;;;;;;;13.91;75.64;98973.31;4993616;28;20925;-69
2021/08/19 01:07:44;;;;;;;776.43;594.73;;;;;;;13.81;75.88;98955.63;4990098;28;20494;-70
2021/08/19 01:10:13;;;;;;;775.17;587.57;;;;;;;13.85;75.54;98971.31;4994219;28;20489;-70
2021/08/19 01:12:42;;;;;;;783.70;603.50;;;;;;;13.81;75.64;98969.97;4989418;28;20442;-69
2021/08/19 01:15:11;;;;;;;1008.53;646.67;;;;;;;13.84;75.07;98963.38;4995600;28;20438;-69
2021/08/19 01:17:40;;;;;;;832.27;611.10;;;;;;;13.80;75.79;98972.84;5004031;28;20869;-69
2021/08/19 01:20:09;;;;;;;761.73;517.57;;;;;;;13.78;76.15;98973.00;5009838;28;20959;-69
2021/08/19 01:22:37;;;;;;;738.53;496.77;;;;;;;13.62;77.20;98940.59;5025094;28;20906;-69
2021/08/19 01:25:06;;;;;;;764.47;550.37;;;;;;;13.89;76.39;98978.06;4997064;28;20565;-69
2021/08/19 01:27:36;;;;;;;772.80;558.50;;;;;;;13.89;76.46;98975.34;5009884;28;20442;-69
2021/08/19 01:30:04;;;;;;;729.20;482.13;;;;;;;13.93;75.35;98976.69;5013505;28;20467;-69
2021/08/19 01:32:33;;;;;;;734.50;495.23;;;;;;;13.98;75.10;98978.88;5013581;28;20436;-70
2021/08/19 01:35:00;;;;;;;773.93;578.87;;;;;;;14.02;74.09;98984.78;5009851;28;20444;-69
2021/08/19 01:37:29;;;;;;;769.13;571.33;;;;;;;13.98;74.79;98985.13;5013390;28;20550;-69
2021/08/19 01:39:57;;;;;;;771.07;578.73;;;;;;;14.01;74.50;98986.63;5013296;28;20518;-69
2021/08/19 01:42:25;;;;;;;758.83;554.03;;;;;;;14.05;73.98;98984.44;5013140;28;20941;-69
2021/08/19 01:44:54;;;;;;;769.90;577.83;;;;;;;14.05;73.86;98992.53;5013501;28;20487;-70
2021/08/19 01:47:23;;;;;;;774.83;592.03;;;;;;;14.04;74.40;98990.84;5013321;28;20985;-69
2021/08/19 01:49:51;;;;;;;772.53;581.83;;;;;;;14.06;73.52;98991.53;5010824;28;20442;-70
2021/08/19 01:52:19;;;;;;;744.17;529.17;;;;;;;14.02;73.96;99000.97;5011857;28;20750;-70
2021/08/19 01:54:48;;;;;;;751.33;538.70;;;;;;;13.97;73.85;99001.50;5028260;28;20445;-70
2021/08/19 01:57:16;;;;;;;742.33;513.60;;;;;;;13.96;73.08;98997.94;5013164;28;20924;-70
2021/08/19 01:59:44;;;;;;;760.23;560.50;;;;;;;13.94;73.96;98999.13;5013224;28;20465;-70
2021/08/19 02:02:13;;;;;;;768.87;572.40;;;;;;;13.88;73.27;98995.25;5012579;28;20481;-70
2021/08/19 02:04:41;;;;;;;736.33;496.83;;;;;;;13.84;73.98;99002.00;5013081;28;20449;-69
2021/08/19 02:07:09;;;;;;;749.90;531.33;;;;;;;13.79;74.05;99000.81;5008649;28;20500;-70
2021/08/19 02:09:37;;;;;;;723.97;474.83;;;;;;;13.74;75.07;99004.00;5012875;28;20509;-69
2021/08/19 02:12:06;;;;;;;719.83;463.73;;;;;;;13.67;74.56;99009.22;5012856;28;20441;-69
2021/08/19 02:14:34;;;;;;;737.27;500.47;;;;;;;13.68;73.79;99005.50;5012826;28;20441;-69
2021/08/19 02:17:02;;;;;;;728.80;485.60;;;;;;;13.68;73.77;99015.47;5012722;28;20441;-69
2021/08/19 02:19:31;;;;;;;739.73;509.17;;;;;;;13.66;73.80;99012.09;5012562;28;20489;-69
2021/08/19 02:21:59;;;;;;;745.10;518.00;;;;;;;13.65;73.75;99013.09;5012491;28;20523;-69
2021/08/19 02:24:27;;;;;;;742.73;517.40;;;;;;;13.55;74.23;98998.94;5006692;28;20434;-69
2021/08/19 02:26:55;;;;;;;747.53;528.43;;;;;;;13.56;74.24;99014.09;5012726;28;20992;-69
2021/08/19 02:29:23;;;;;;;743.93;523.57;;;;;;;13.52;74.07;99010.06;5027393;28;20439;-69
2021/08/19 02:31:51;;;;;;;749.73;531.20;;;;;;;13.40;74.33;99009.50;5012586;28;20440;-70
2021/08/19 02:34:19;;;;;;;757.97;552.17;;;;;;;12.99;74.39;98938.44;5012231;28;20499;-69
2021/08/19 02:36:49;;;;;;;740.83;511.07;;;;;;;13.46;74.20;99019.63;5027618;28;20941;-69
2021/08/19 02:39:17;;;;;;;754.13;541.73;;;;;;;13.49;74.24;99015.78;5011593;28;20998;-69
2021/08/19 02:41:45;;;;;;;767.17;574.30;;;;;;;13.50;73.11;99006.69;5010449;28;20866;-70
2021/08/19 02:44:13;;;;;;;758.23;557.40;;;;;;;13.52;73.51;99010.91;5012525;28;20453;-69
2021/08/19 02:46:41;;;;;;;752.93;544.43;;;;;;;13.40;73.29;99005.97;5012175;28;20431;-69
2021/08/19 02:49:09;;;;;;;760.07;553.23;;;;;;;13.50;73.66;99009.38;5012038;28;20501;-70
2021/08/19 02:51:37;;;;;;;745.60;529.17;;;;;;;13.48;73.61;99014.09;5012471;28;20484;-69
2021/08/19 02:54:06;;;;;;;757.50;551.23;;;;;;;13.49;72.91;99007.69;5012139;28;20866;-69
2021/08/19 02:56:35;;;;;;;736.50;506.43;;;;;;;13.47;73.67;99015.94;5011815;28;20462;-69
2021/08/19 02:59:03;;;;;;;762.60;563.50;;;;;;;13.46;73.14;99010.69;5010388;28;20437;-69
2021/08/19 03:01:31;;;;;;;737.57;512.73;;;;;;;13.45;73.38;99009.84;5011650;28;20512;-69
2021/08/19 03:03:59;;;;;;;738.80;502.50;;;;;;;13.45;72.97;99020.63;5012171;28;21008;-69
2021/08/19 03:06:28;;;;;;;730.53;480.27;;;;;;;13.44;73.43;99020.81;5011712;28;20443;-69
2021/08/19 03:08:56;;;;;;;715.23;453.53;;;;;;;13.46;72.68;99024.19;5011720;28;20498;-69
2021/08/19 03:11:25;;;;;;;720.73;459.63;;;;;;;13.44;72.67;99023.50;5000770;28;20454;-69
2021/08/19 03:13:54;;;;;;;759.93;561.13;;;;;;;13.48;72.72;99025.72;4982288;28;20511;-69
2021/08/19 03:16:22;;;;;;;737.50;510.17;;;;;;;13.45;73.14;99023.34;4995965;28;20800;-69
2021/08/19 03:18:50;;;;;;;745.83;514.43;;;;;;;13.42;72.95;99017.44;4989226;28;20952;-69
2021/08/19 03:21:20;;;;;;;759.33;550.93;;;;;;;13.26;73.51;99002.91;4989024;28;20501;-69
2021/08/19 03:23:48;;;;;;;757.00;544.00;;;;;;;13.39;73.73;99025.84;4985371;28;21034;-69
2021/08/19 03:26:17;;;;;;;699.57;415.77;;;;;;;13.41;73.39;99027.38;4990031;28;21081;-69
2021/08/19 03:28:46;;;;;;;740.03;513.70;;;;;;;13.41;72.63;99029.22;4984724;28;20952;-69
2021/08/19 03:31:14;;;;;;;730.47;490.53;;;;;;;13.37;72.81;99017.94;4980159;28;20960;-69
2021/08/19 03:33:43;;;;;;;741.63;521.47;;;;;;;13.40;73.28;99022.16;4985088;28;20703;-69
2021/08/19 03:36:11;;;;;;;723.67;474.27;;;;;;;13.47;72.72;99021.34;4972155;28;20443;-69
2021/08/19 03:38:43;;;;;;;714.60;457.23;;;;;;;13.47;72.89;99020.47;4971822;28;20450;-69
2021/08/19 03:41:12;;;;;;;699.63;421.10;;;;;;;13.49;72.79;99021.19;4971803;28;20450;-69
2021/08/19 03:43:40;;;;;;;713.23;456.63;;;;;;;13.54;72.64;99032.31;4972124;28;20481;-69
2021/08/19 03:46:10;;;;;;;730.87;498.53;;;;;;;13.58;71.89;99033.66;4976009;28;20458;-69
2021/08/19 03:48:38;;;;;;;749.40;532.60;;;;;;;13.32;72.40;98993.31;4988163;28;20834;-69
2021/08/19 03:51:07;;;;;;;754.23;548.53;;;;;;;13.62;72.27;99045.81;4971510;28;20433;-69
2021/08/19 03:53:35;;;;;;;742.83;523.67;;;;;;;13.62;71.85;99045.81;4986669;28;20438;-69
2021/08/19 03:56:03;;;;;;;733.53;494.47;;;;;;;13.62;71.99;99048.50;4987776;28;20437;-69
2021/08/19 03:58:31;;;;;;;745.40;528.27;;;;;;;13.55;72.04;99037.53;4990355;28;20440;-69
2021/08/19 04:01:01;;;;;;;686.80;391.77;;;;;;;13.55;71.86;99039.38;4984828;28;20809;-70
2021/08/19 04:03:31;;;;;;;679.33;374.37;;;;;;;13.56;71.83;99051.88;4988259;28;20540;-70
2021/08/19 04:05:59;;;;;;;744.20;520.73;;;;;;;13.58;71.93;99045.28;4988774;28;20828;-69
2021/08/19 04:08:27;;;;;;;751.20;534.33;;;;;;;13.55;72.52;99055.56;4988913;28;20878;-69
2021/08/19 04:10:59;;;;;;;733.67;499.77;;;;;;;13.58;72.87;99052.53;4989829;28;20549;-70
2021/08/19 04:13:37;;;;;;;704.60;431.60;;;;;;;13.52;73.17;99047.81;4988465;28;20452;-69
2021/08/19 04:16:06;;;;;;;713.10;452.43;;;;;;;13.59;72.77;99054.22;4984785;28;20885;-69
2021/08/19 04:18:36;;;;;;;709.90;448.33;;;;;;;13.61;72.23;99058.44;4987856;28;20526;-70
2021/08/19 04:21:04;;;;;;;740.33;514.37;;;;;;;13.60;72.22;99054.06;4988517;28;20434;-70
2021/08/19 04:23:32;;;;;;;701.17;420.97;;;;;;;13.65;72.51;99064.34;4988925;28;20547;-70
2021/08/19 04:26:00;;;;;;;691.67;401.87;;;;;;;13.63;72.48;99069.06;4986368;28;20510;-70
2021/08/19 04:28:29;;;;;;;701.17;416.40;;;;;;;13.65;72.87;99061.66;4987964;28;20438;-69
2021/08/19 04:30:57;;;;;;;679.00;375.87;;;;;;;13.70;72.79;99069.25;4988209;28;20503;-69
2021/08/19 04:33:28;;;;;;;681.63;382.70;;;;;;;13.74;72.49;99066.06;4986811;28;20447;-69
2021/08/19 04:35:58;;;;;;;671.13;368.30;;;;;;;13.85;71.50;99070.31;4987681;28;20952;-70
2021/08/19 04:38:26;;;;;;;705.47;421.70;;;;;;;13.91;71.48;99073.19;4987929;28;20436;-69
2021/08/19 04:40:54;;;;;;;712.77;452.80;;;;;;;13.96;70.94;99065.41;5001523;28;20504;-69
2021/08/19 04:43:22;;;;;;;700.17;420.47;;;;;;;14.04;71.14;99069.97;4991305;28;20807;-69
2021/08/19 04:45:50;;;;;;;689.67;397.60;;;;;;;14.11;71.03;99076.41;4987039;28;20471;-69
2021/08/19 04:48:18;;;;;;;696.77;415.20;;;;;;;14.18;70.68;99072.03;4988807;28;20446;-69
2021/08/19 04:50:46;;;;;;;663.70;349.80;;;;;;;14.32;70.10;99075.91;4985621;28;20436;-70
2021/08/19 04:53:16;;;;;;;719.37;459.17;;;;;;;14.44;69.90;99076.44;4988816;28;20429;-70
2021/08/19 04:55:44;;;;;;;740.23;512.63;;;;;;;14.49;69.86;99074.91;4987965;28;20501;-69
2021/08/19 04:58:12;;;;;;;728.50;492.10;;;;;;;14.63;69.71;99081.47;5001147;28;20462;-70
2021/08/19 05:00:40;;;;;;;737.20;512.47;;;;;;;14.72;68.99;99079.63;4981088;28;20454;-69
2021/08/19 05:03:08;;;;;;;716.30;461.30;;;;;;;14.94;69.30;99094.25;4984586;28;20561;-69
2021/08/19 05:05:36;;;;;;;707.53;434.43;;;;;;;15.07;68.45;99095.44;4989809;28;20478;-69
2021/08/19 05:08:05;;;;;;;723.43;476.87;;;;;;;15.14;68.03;99103.69;4991817;28;21101;-69
2021/08/19 05:10:35;;;;;;;704.90;433.27;;;;;;;15.29;68.36;99092.97;4996960;28;20437;-69
2021/08/19 05:13:03;;;;;;;717.50;455.77;;;;;;;15.47;68.07;99096.28;4992139;28;20450;-69
2021/08/19 05:15:31;;;;;;;1896.70;840.67;;;;;;;15.67;67.05;99108.41;4991781;28;20456;-73
2021/08/19 05:17:59;;;;;;;695.20;388.87;;;;;;;15.70;67.20;99090.97;4990827;28;20865;-70
2021/08/19 05:20:27;;;;;;;689.90;387.57;;;;;;;15.88;67.07;99106.91;4991087;28;20921;-69
2021/08/19 05:22:55;;;;;;;681.30;383.37;;;;;;;16.02;67.55;99103.47;4991625;28;20844;-68
2021/08/19 05:25:23;;;;;;;686.30;385.27;;;;;;;16.18;66.05;99097.91;4991051;28;20483;-68
2021/08/19 05:27:52;;;;;;;676.93;372.87;;;;;;;16.27;65.59;99110.41;4990856;28;20470;-69
2021/08/19 05:30:21;;;;;;;681.03;384.27;;;;;;;16.27;65.05;99115.81;4990721;28;20972;-67
2021/08/19 05:32:49;;;;;;;678.53;378.47;;;;;;;16.34;64.93;99105.94;4991384;28;20229;-70
2021/08/19 05:35:17;;;;;;;687.20;390.37;;;;;;;16.53;65.67;99106.44;4991591;28;20207;-69
2021/08/19 05:37:45;;;;;;;684.17;391.37;;;;;;;16.62;65.24;99111.63;4991827;28;20200;-71
2021/08/19 05:40:14;;;;;;;684.40;389.93;;;;;;;16.81;64.29;99109.44;4992451;28;20211;-69
2021/08/19 05:42:42;;;;;;;682.97;388.07;;;;;;;16.94;64.61;99115.94;5007178;28;20443;-69
2021/08/19 05:45:11;;;;;;;668.03;365.40;;;;;;;17.25;62.50;99117.66;4990546;28;20215;-69
2021/08/19 05:47:39;;;;;;;686.70;388.93;;;;;;;17.43;63.30;99122.69;4993004;28;20295;-69
2021/08/19 05:50:10;;;;;;;684.00;390.43;;;;;;;17.65;63.32;99133.44;4993649;28;20258;-69
2021/08/19 05:52:39;;;;;;;685.40;395.73;;;;;;;17.84;60.13;99118.47;4988289;28;20195;-69
2021/08/19 05:55:08;;;;;;;686.87;397.20;;;;;;;18.05;60.79;99117.66;4987361;28;20200;-69
2021/08/19 05:57:36;;;;;;;681.57;384.33;;;;;;;18.30;60.90;99120.84;4992579;28;20212;-69
2021/08/19 06:00:05;;;;;;;685.03;390.97;;;;;;;18.42;59.86;99118.47;4989105;28;20216;-69
2021/08/19 06:02:35;;;;;;;703.30;419.87;;;;;;;18.67;59.52;99125.19;4990168;28;20785;-69
2021/08/19 06:05:04;;;;;;;738.63;502.30;;;;;;;18.89;59.58;99137.72;4990501;28;20219;-69
2021/08/19 06:07:32;;;;;;;750.83;529.33;;;;;;;19.22;57.56;99131.69;4986514;28;20310;-69
2021/08/19 06:10:00;;;;;;;749.70;523.57;;;;;;;19.38;57.63;99134.13;5004898;28;20208;-70
2021/08/19 06:12:28;;;;;;;717.63;452.20;;;;;;;19.54;58.09;99139.25;5000790;28;20687;-69
2021/08/19 06:14:56;;;;;;;738.33;490.57;;;;;;;19.59;57.07;99141.34;4990788;28;20259;-69
2021/08/19 06:17:25;;;;;;;750.70;522.77;;;;;;;19.85;54.51;99132.47;4987929;28;20687;-69
2021/08/19 06:19:54;;;;;;;758.47;544.80;;;;;;;19.79;56.21;99145.03;4981815;28;20662;-69
2021/08/19 06:22:22;;;;;;;704.23;425.20;;;;;;;19.95;55.05;99132.97;4979695;28;20295;-69
2021/08/19 06:24:50;;;;;;;748.10;526.63;;;;;;;20.15;56.51;99139.28;4985008;28;20263;-70
2021/08/19 06:27:19;;;;;;;771.97;571.00;;;;;;;20.40;54.86;99146.94;4987248;28;20255;-70
2021/08/19 06:29:47;;;;;;;748.97;525.10;;;;;;;20.64;54.44;99140.06;4979784;28;20666;-69
2021/08/19 06:32:15;;;;;;;748.27;519.50;;;;;;;20.83;52.00;99141.13;4981193;28;20200;-70
2021/08/19 06:34:43;;;;;;;776.13;579.17;;;;;;;21.00;51.04;99131.47;4988687;28;20255;-70
2021/08/19 06:37:12;;;;;;;768.63;563.13;;;;;;;20.95;49.86;99134.81;4986243;28;20706;-69
2021/08/19 06:39:40;;;;;;;767.70;558.57;;;;;;;21.09;50.46;99143.84;4981426;28;20269;-70
2021/08/19 06:42:08;;;;;;;773.33;570.40;;;;;;;21.32;50.78;99141.53;4983922;28;20648;-70
2021/08/19 06:44:37;;;;;;;782.97;593.40;;;;;;;21.19;50.90;99140.69;5002400;28;20228;-70
2021/08/19 06:47:05;;;;;;;777.43;567.90;;;;;;;21.44;50.91;99154.56;4983515;28;20207;-69
2021/08/19 06:49:33;;;;;;;785.73;597.90;;;;;;;21.53;48.39;99145.06;4981362;28;20201;-69
2021/08/19 06:52:01;;;;;;;772.10;567.00;;;;;;;21.48;48.75;99158.53;5001054;28;20347;-70
2021/08/19 06:54:30;;;;;;;792.37;608.30;;;;;;;21.65;48.42;99151.53;4987905;28;20196;-70
2021/08/19 06:57:00;;;;;;;790.80;612.60;;;;;;;21.67;49.75;99143.97;4980892;28;20250;-70
2021/08/19 06:59:29;;;;;;;772.33;573.33;;;;;;;22.16;49.64;99169.91;4980937;28;20204;-69
2021/08/19 07:01:57;;;;;;;793.37;611.43;;;;;;;21.98;47.81;99155.00;4987842;28;20315;-70
2021/08/19 07:04:25;;;;;;;802.77;633.27;;;;;;;22.28;48.30;99174.47;4985579;28;20220;-69
2021/08/19 07:06:53;;;;;;;806.00;636.90;;;;;;;22.22;47.04;99169.88;4981169;28;20247;-69
2021/08/19 07:09:22;;;;;;;791.37;611.20;;;;;;;22.31;47.62;99182.22;4998414;28;20278;-70
2021/08/19 07:11:51;;;;;;;797.07;620.37;;;;;;;22.45;45.86;99169.31;5011593;28;20507;-69
2021/08/19 07:14:19;;;;;;;794.47;611.60;;;;;;;22.57;47.23;99181.25;5012042;28;20204;-70
2021/08/19 07:16:47;;;;;;;792.40;609.80;;;;;;;22.62;47.18;99180.56;5011839;28;20281;-70
2021/08/19 07:19:15;;;;;;;801.43;624.27;;;;;;;22.51;44.55;99184.84;5011758;28;20219;-69
2021/08/19 07:21:45;;;;;;;785.70;600.50;;;;;;;22.29;47.12;99184.34;5011715;28;20665;-70
2021/08/19 07:24:13;;;;;;;766.63;562.03;;;;;;;22.42;47.15;99188.09;5011303;28;20708;-69
2021/08/19 07:26:41;;;;;;;770.13;567.50;;;;;;;22.66;47.08;99181.00;5011590;28;20207;-69
2021/08/19 07:29:11;;;;;;;787.33;604.07;;;;;;;22.59;46.79;99195.53;5011492;28;20745;-70
2021/08/19 07:31:40;;;;;;;777.13;583.33;;;;;;;22.60;45.73;99194.47;5011327;28;20253;-69
2021/08/19 07:34:08;;;;;;;777.70;588.57;;;;;;;22.54;46.55;99198.09;5011343;28;20254;-70
2021/08/19 07:36:37;;;;;;;769.03;569.73;;;;;;;22.75;45.67;99196.94;5011790;28;20203;-69
2021/08/19 07:39:06;;;;;;;770.83;572.27;;;;;;;22.89;44.98;99200.44;5011285;28;20569;-69
2021/08/19 07:41:35;;;;;;;768.77;558.17;;;;;;;22.79;44.87;99202.78;5011318;28;20191;-69
2021/08/19 07:44:03;;;;;;;774.70;579.60;;;;;;;22.90;44.42;99200.22;5011173;28;20203;-70
2021/08/19 07:46:34;;;;;;;749.93;523.60;;;;;;;22.95;42.53;99201.44;5010958;28;20653;-69
2021/08/19 07:49:02;;;;;;;770.73;565.70;;;;;;;23.09;43.21;99203.03;5026284;28;20203;-69
2021/08/19 07:51:31;;;;;;;740.83;506.37;;;;;;;23.24;45.00;99198.88;5010991;28;20230;-70
2021/08/19 07:53:59;;;;;;;748.90;525.83;;;;;;;23.18;42.24;99197.03;5009776;28;20207;-69
2021/08/19 07:56:27;;;;;;;724.80;485.17;;;;;;;23.27;43.52;99210.47;5011130;28;20249;-69
2021/08/19 07:58:57;;;;;;;722.90;484.13;;;;;;;23.20;43.82;99199.56;5010933;28;20266;-70
2021/08/19 08:01:25;;;;;;;723.77;483.03;;;;;;;22.85;41.55;99208.25;5010972;28;20235;-69
2021/08/19 08:03:55;;;;;;;763.63;552.57;;;;;;;23.22;43.69;99208.38;5025938;28;20270;-70
2021/08/19 08:06:23;;;;;;;782.60;589.87;;;;;;;22.97;43.49;99205.66;5010870;28;20319;-69
2021/08/19 08:08:52;;;;;;;767.17;553.20;;;;;;;23.17;42.86;99200.84;5010645;28;20199;-70
2021/08/19 08:11:20;;;;;;;740.87;508.10;;;;;;;23.28;43.41;99199.28;5010957;28;20211;-69
2021/08/19 08:13:48;;;;;;;769.40;557.83;;;;;;;23.65;43.86;99202.97;5025691;28;20203;-70
2021/08/19 08:16:16;;;;;;;758.50;538.93;;;;;;;23.94;42.24;99217.84;5011192;28;20266;-69
2021/08/19 08:18:44;;;;;;;724.77;483.53;;;;;;;23.69;40.74;99204.19;5010700;28;20203;-69
2021/08/19 08:21:14;;;;;;;724.73;486.23;;;;;;;23.91;42.46;99210.09;5010786;28;20234;-70
2021/08/19 08:23:43;;;;;;;726.13;492.80;;;;;;;23.91;41.33;99188.16;5010585;28;20210;-70
2021/08/19 08:26:12;;;;;;;721.17;477.90;;;;;;;24.38;41.34;99218.59;5010597;28;20662;-70
2021/08/19 08:28:40;;;;;;;722.73;477.00;;;;;;;24.18;39.46;99191.38;5010445;28;20210;-70
2021/08/19 08:31:08;;;;;;;724.63;490.10;;;;;;;24.21;39.71;99209.31;5009520;28;20191;-69
2021/08/19 08:33:36;;;;;;;725.47;488.70;;;;;;;24.37;39.40;99212.28;5010404;28;20211;-70
2021/08/19 08:36:05;;;;;;;725.97;486.13;;;;;;;24.41;40.92;99210.75;5010484;28;20569;-70
2021/08/19 08:38:34;;;;;;;728.97;496.30;;;;;;;24.26;40.62;99221.28;5009724;28;20203;-70
2021/08/19 08:41:02;;;;;;;725.27;484.83;;;;;;;24.53;41.60;99227.28;5010326;28;20199;-70
2021/08/19 08:43:31;;;;;;;724.90;483.43;;;;;;;24.35;39.82;99233.63;5010203;28;20580;-69
2021/08/19 08:45:59;;;;;;;754.33;545.47;;;;;;;24.32;38.76;99225.88;5010339;28;20277;-70
2021/08/19 08:48:30;;;;;;;786.93;594.97;;;;;;;24.31;41.33;99231.59;5010416;28;20673;-69
2021/08/19 08:50:58;;;;;;;730.50;498.00;;;;;;;23.92;38.85;99235.59;5025452;28;20215;-70
2021/08/19 08:53:26;;;;;;;750.13;533.03;;;;;;;23.81;40.47;99228.94;5010170;28;20246;-70
2021/08/19 08:55:55;;;;;;;723.73;480.63;;;;;;;23.78;40.90;99245.84;5010396;28;20200;-70
2021/08/19 08:58:23;;;;;;;789.07;600.00;;;;;;;24.00;41.58;99246.28;5010066;28;20210;-70
2021/08/19 09:00:51;;;;;;;768.57;565.63;;;;;;;23.69;41.78;99242.56;5009774;28;20214;-70
2021/08/19 09:03:21;;;;;;;726.40;492.10;;;;;;;23.79;41.03;99253.84;5010093;28;20196;-70
2021/08/19 09:05:51;;;;;;;796.03;613.23;;;;;;;23.66;39.93;99254.00;5010757;28;20269;-70
2021/08/19 09:08:21;;;;;;;787.37;605.07;;;;;;;23.60;39.12;99267.78;5010056;28;20254;-70
2021/08/19 09:10:50;;;;;;;772.33;569.40;;;;;;;23.60;41.51;99268.63;5025394;28;20656;-69
2021/08/19 09:13:23;;;;;;;742.50;516.60;;;;;;;23.56;41.06;99275.56;5010363;28;20700;-71
2021/08/19 09:15:53;;;;;;;732.07;508.63;;;;;;;23.61;40.86;99273.03;5010118;28;20203;-69
2021/08/19 09:18:39;;;;;;;720.23;482.57;;;;;;;23.81;41.79;99284.63;5010272;28;20215;-70
2021/08/19 09:21:18;;;;;;;724.60;492.80;;;;;;;23.64;39.95;99283.53;4984357;28;20207;-70
2021/08/19 09:23:46;;;;;;;719.97;480.47;;;;;;;23.44;40.42;99282.84;5025229;28;20260;-70
2021/08/19 09:26:27;;;;;;;730.83;507.57;;;;;;;23.50;39.96;99301.13;5010147;28;20600;-70
2021/08/19 09:29:19;;;;;;;748.47;536.03;;;;;;;23.67;42.36;99285.84;5010323;28;20211;-70
2021/08/19 09:31:49;;;;;;;738.43;519.40;;;;;;;23.84;41.13;99299.78;5025632;28;20207;-70
2021/08/19 09:34:17;;;;;;;740.17;521.83;;;;;;;23.94;42.22;99300.13;5009983;28;20195;-70
2021/08/19 09:36:46;;;;;;;749.50;540.40;;;;;;;23.90;39.29;99300.81;5010267;28;20204;-70
2021/08/19 09:39:18;;;;;;;762.47;563.47;;;;;;;24.10;38.57;99307.75;5010077;28;20199;-69
2021/08/19 09:41:54;;;;;;;788.83;603.03;;;;;;;24.31;39.04;99301.03;5010066;28;20238;-70
2021/08/19 09:44:33;;;;;;;749.73;537.80;;;;;;;24.56;40.73;99309.19;5009795;28;20616;-70
2021/08/19 09:47:02;;;;;;;769.13;566.00;;;;;;;24.61;38.57;99306.59;5009933;28;20234;-70
2021/08/19 09:49:34;;;;;;;802.17;621.93;;;;;;;24.36;39.10;99308.56;5011432;28;20665;-70
2021/08/19 09:52:08;;;;;;;793.00;613.30;;;;;;;24.33;39.85;99309.03;5013414;28;20209;-70
2021/08/19 09:54:38;;;;;;;792.90;611.67;;;;;;;24.43;39.09;99299.19;5013292;28;20200;-70
2021/08/19 09:57:07;;;;;;;783.93;598.20;;;;;;;24.52;38.97;99293.41;5028724;28;20200;-71
2021/08/19 09:59:38;;;;;;;821.07;667.13;;;;;;;24.98;40.58;99312.88;5013202;28;20613;-70
2021/08/19 10:02:08;;;;;;;791.13;605.73;;;;;;;24.60;38.80;99254.66;5013435;28;20708;-70
2021/08/19 10:04:37;;;;;;;809.87;643.00;;;;;;;25.04;37.66;99313.84;5012821;28;20212;-69
2021/08/19 10:07:05;;;;;;;808.03;643.57;;;;;;;25.13;39.46;99297.91;5013442;28;20219;-70
2021/08/19 10:09:34;;;;;;;818.87;659.13;;;;;;;25.31;38.61;99326.13;5013122;28;20254;-70
2021/08/19 10:12:02;;;;;;;815.33;653.03;;;;;;;25.13;37.10;99297.91;5012945;28;20203;-70
2021/08/19 10:14:31;;;;;;;824.13;672.17;;;;;;;25.22;36.47;99326.72;5013105;28;20690;-70
2021/08/19 10:17:01;;;;;;;812.90;648.03;;;;;;;25.34;37.38;99335.81;5012759;28;20218;-70
2021/08/19 10:19:32;;;;;;;813.23;651.83;;;;;;;25.51;36.74;99339.59;5027136;28;20206;-70
2021/08/19 10:22:06;;;;;;;804.23;628.57;;;;;;;25.54;37.63;99341.03;5012903;28;20261;-70
2021/08/19 10:24:37;;;;;;;812.83;648.00;;;;;;;25.30;35.75;99353.84;4987415;28;20222;-71
2021/08/19 10:27:14;;;;;;;806.67;641.00;;;;;;;25.27;36.28;99329.59;5012831;28;20226;-70
2021/08/19 10:29:45;;;;;;;804.20;633.10;;;;;;;25.79;37.77;99347.22;4987790;28;20710;-70
2021/08/19 10:32:37;;;;;;;775.67;582.87;;;;;;;25.76;35.86;99333.94;5012535;28;20203;-70
2021/08/19 10:35:07;;;;;;;774.77;587.10;;;;;;;25.76;36.08;99346.84;5008743;28;20215;-70
2021/08/19 10:38:04;;;;;;;782.47;599.37;;;;;;;26.18;36.94;99362.19;5012291;28;20196;-70
2021/08/19 10:40:39;;;;;;;795.43;618.33;;;;;;;26.21;34.56;99342.44;5012444;28;20287;-71
2021/08/19 10:43:44;;;;;;;826.63;672.03;;;;;;;26.05;35.68;99353.34;5012596;28;20191;-70
2021/08/19 10:46:16;;;;;;;810.40;642.60;;;;;;;25.78;36.98;99361.19;5011939;28;20217;-70
2021/08/19 10:48:51;;;;;;;829.13;689.17;;;;;;;25.81;35.51;99355.22;5012182;28;20199;-70
2021/08/19 10:51:20;;;;;;;827.80;683.40;;;;;;;25.67;36.92;99363.66;5012194;28;20202;-70
2021/08/19 10:53:49;;;;;;;821.27;667.00;;;;;;;25.56;37.17;99356.22;5012223;28;20204;-70
2021/08/19 10:56:42;;;;;;;839.93;701.80;;;;;;;25.56;35.95;99356.22;5012104;28;20203;-70
2021/08/19 10:59:28;;;;;;;824.77;671.83;;;;;;;25.70;38.05;99354.09;5012243;28;20199;-69
2021/08/19 11:01:57;;;;;;;836.57;691.27;;;;;;;25.71;37.17;99349.44;4984120;28;20231;-70
2021/08/19 11:04:44;;;;;;;844.90;705.23;;;;;;;25.41;36.02;99353.06;5012078;28;20208;-70
2021/08/19 11:07:12;;;;;;;833.20;689.93;;;;;;;25.55;37.10;99373.78;4987281;28;20231;-70
2021/08/19 11:09:41;;;;;;;838.23;692.67;;;;;;;25.82;37.52;99381.66;5012120;28;20249;-70
2021/08/19 11:12:09;;;;;;;818.23;663.30;;;;;;;25.66;36.94;99377.63;5012076;28;20717;-70